sensor_id;sensor_type;location;lat;lon;timestamp;P1;durP1;ratioP1;P2;durP2;ratioP2
32451;SDS011;45528;52.102;5.242;2023-02-15T00:00:06;59.2;;;36.71;;
32451;SDS011;45528;52.102;5.242;2023-02-15T00:01:44;60.0;;;35.6;;
32451;SDS011;45528;52.102;5.242;2023-02-15T00:03:22;60.5;;;36.9;;
32451;SDS011;45528;52.102;5.242;2023-02-15T00:06:34;60.6;;;36.6;;
32451;SDS011;45528;52.102;5.242;2023-02-15T00:08:11;56.1;;;36.21;;
32451;SDS011;45528;52.102;5.242;2023-02-15T00:09:47;60.5;;;35.9;;
32451;SDS011;45528;52.102;5.242;2023-02-15T00:13:17;60.3;;;36.0;;
32451;SDS011;45528;52.102;5.242;2023-02-15T00:14:53;52.0;;;32.9;;
32451;SDS011;45528;52.102;5.242;2023-02-15T00:16:29;56.7;;;34.0;;
32451;SDS011;45528;52.102;5.242;2023-02-15T00:18:08;56.7;;;35.71;;
32451;SDS011;45528;52.102;5.242;2023-02-15T00:21:20;60.2;;;35.71;;
32451;SDS011;45528;52.102;5.242;2023-02-15T00:22:56;58.9;;;35.81;;
32451;SDS011;45528;52.102;5.242;2023-02-15T00:24:34;63.3;;;37.0;;
32451;SDS011;45528;52.102;5.242;2023-02-15T00:27:48;59.3;;;35.21;;
32451;SDS011;45528;52.102;5.242;2023-02-15T00:29:25;61.3;;;36.21;;
32451;SDS011;45528;52.102;5.242;2023-02-15T00:31:03;59.6;;;35.6;;
32451;SDS011;45528;52.102;5.242;2023-02-15T00:32:40;58.0;;;35.71;;
32451;SDS011;45528;52.102;5.242;2023-02-15T00:35:56;59.0;;;36.1;;
32451;SDS011;45528;52.102;5.242;2023-02-15T00:37:33;62.0;;;36.0;;
32451;SDS011;45528;52.102;5.242;2023-02-15T00:39:09;63.8;;;36.81;;
32451;SDS011;45528;52.102;5.242;2023-02-15T00:42:28;63.2;;;36.71;;
32451;SDS011;45528;52.102;5.242;2023-02-15T00:44:04;64.5;;;37.1;;
32451;SDS011;45528;52.102;5.242;2023-02-15T00:45:42;59.6;;;36.31;;
32451;SDS011;45528;52.102;5.242;2023-02-15T00:47:21;61.2;;;36.6;;
32451;SDS011;45528;52.102;5.242;2023-02-15T00:50:33;62.6;;;37.6;;
32451;SDS011;45528;52.102;5.242;2023-02-15T00:52:09;60.3;;;35.81;;
32451;SDS011;45528;52.102;5.242;2023-02-15T00:53:45;63.8;;;37.21;;
32451;SDS011;45528;52.102;5.242;2023-02-15T00:56:58;63.9;;;37.1;;
32451;SDS011;45528;52.102;5.242;2023-02-15T00:58:35;61.9;;;37.1;;
32451;SDS011;45528;52.102;5.242;2023-02-15T01:00:12;60.8;;;36.31;;
32451;SDS011;45528;52.102;5.242;2023-02-15T01:03:25;60.4;;;37.21;;
32451;SDS011;45528;52.102;5.242;2023-02-15T01:05:01;58.8;;;35.81;;
32451;SDS011;45528;52.102;5.242;2023-02-15T01:06:37;63.1;;;37.1;;
32451;SDS011;45528;52.102;5.242;2023-02-15T01:08:14;62.2;;;36.81;;
32451;SDS011;45528;52.102;5.242;2023-02-15T01:11:27;56.0;;;34.4;;
32451;SDS011;45528;52.102;5.242;2023-02-15T01:13:03;61.2;;;36.0;;
32451;SDS011;45528;52.102;5.242;2023-02-15T01:14:40;58.1;;;35.81;;
32451;SDS011;45528;52.102;5.242;2023-02-15T01:17:53;59.8;;;36.4;;
32451;SDS011;45528;52.102;5.242;2023-02-15T01:19:29;64.0;;;37.5;;
32451;SDS011;45528;52.102;5.242;2023-02-15T01:21:09;62.3;;;36.21;;
32451;SDS011;45528;52.102;5.242;2023-02-15T01:24:26;62.5;;;37.5;;
32451;SDS011;45528;52.102;5.242;2023-02-15T01:26:02;62.5;;;37.1;;
32451;SDS011;45528;52.102;5.242;2023-02-15T01:27:39;60.8;;;36.6;;
32451;SDS011;45528;52.102;5.242;2023-02-15T01:29:15;60.5;;;37.4;;
32451;SDS011;45528;52.102;5.242;2023-02-15T01:32:28;60.5;;;35.31;;
32451;SDS011;45528;52.102;5.242;2023-02-15T01:34:04;61.7;;;36.81;;
32451;SDS011;45528;52.102;5.242;2023-02-15T01:35:40;62.2;;;37.5;;
32451;SDS011;45528;52.102;5.242;2023-02-15T01:38:52;62.5;;;36.21;;
32451;SDS011;45528;52.102;5.242;2023-02-15T01:40:28;63.4;;;37.71;;
32451;SDS011;45528;52.102;5.242;2023-02-15T01:42:07;59.2;;;36.21;;
32451;SDS011;45528;52.102;5.242;2023-02-15T01:45:25;58.5;;;35.71;;
32451;SDS011;45528;52.102;5.242;2023-02-15T01:47:04;56.3;;;35.21;;
32451;SDS011;45528;52.102;5.242;2023-02-15T01:48:40;63.7;;;36.81;;
32451;SDS011;45528;52.102;5.242;2023-02-15T01:50:23;63.8;;;37.71;;
32451;SDS011;45528;52.102;5.242;2023-02-15T01:53:43;59.6;;;35.9;;
32451;SDS011;45528;52.102;5.242;2023-02-15T01:55:27;55.0;;;35.21;;
32451;SDS011;45528;52.102;5.242;2023-02-15T01:57:09;64.7;;;37.9;;
32451;SDS011;45528;52.102;5.242;2023-02-15T01:58:52;57.0;;;35.1;;
32451;SDS011;45528;52.102;5.242;2023-02-15T02:00:31;57.0;;;35.1;;
32451;SDS011;45528;52.102;5.242;2023-02-15T02:03:51;56.6;;;34.6;;
32451;SDS011;45528;52.102;5.242;2023-02-15T02:05:34;54.7;;;33.4;;
32451;SDS011;45528;52.102;5.242;2023-02-15T02:07:11;65.41;;;35.5;;
32451;SDS011;45528;52.102;5.242;2023-02-15T02:10:28;58.2;;;35.0;;
32451;SDS011;45528;52.102;5.242;2023-02-15T02:12:04;57.8;;;34.5;;
32451;SDS011;45528;52.102;5.242;2023-02-15T02:13:41;57.4;;;34.31;;
32451;SDS011;45528;52.102;5.242;2023-02-15T02:15:20;56.3;;;34.0;;
32451;SDS011;45528;52.102;5.242;2023-02-15T02:18:55;55.5;;;34.0;;
32451;SDS011;45528;52.102;5.242;2023-02-15T02:20:55;58.3;;;35.1;;
32451;SDS011;45528;52.102;5.242;2023-02-15T02:23:48;56.3;;;35.0;;
32451;SDS011;45528;52.102;5.242;2023-02-15T02:25:58;56.2;;;34.71;;
32451;SDS011;45528;52.102;5.242;2023-02-15T02:33:55;57.6;;;34.5;;
32451;SDS011;45528;52.102;5.242;2023-02-15T02:35:41;56.0;;;35.6;;
32451;SDS011;45528;52.102;5.242;2023-02-15T02:37:28;59.6;;;34.6;;
32451;SDS011;45528;52.102;5.242;2023-02-15T02:39:13;63.4;;;36.1;;
32451;SDS011;45528;52.102;5.242;2023-02-15T02:41:08;63.3;;;36.21;;
32451;SDS011;45528;52.102;5.242;2023-02-15T02:42:54;62.4;;;36.21;;
32451;SDS011;45528;52.102;5.242;2023-02-15T02:44:39;52.0;;;29.9;;
32451;SDS011;45528;52.102;5.242;2023-02-15T02:48:02;49.2;;;29.7;;
32451;SDS011;45528;52.102;5.242;2023-02-15T02:49:43;54.0;;;30.6;;
32451;SDS011;45528;52.102;5.242;2023-02-15T02:51:21;55.8;;;31.4;;
32451;SDS011;45528;52.102;5.242;2023-02-15T02:52:58;53.7;;;30.7;;
32451;SDS011;45528;52.102;5.242;2023-02-15T02:56:13;57.3;;;30.9;;
32451;SDS011;45528;52.102;5.242;2023-02-15T02:57:57;56.7;;;30.6;;
32451;SDS011;45528;52.102;5.242;2023-02-15T02:59:41;59.2;;;31.6;;
32451;SDS011;45528;52.102;5.242;2023-02-15T03:01:26;52.8;;;30.6;;
32451;SDS011;45528;52.102;5.242;2023-02-15T03:04:59;56.5;;;32.21;;
32451;SDS011;45528;52.102;5.242;2023-02-15T03:06:45;59.1;;;32.0;;
32451;SDS011;45528;52.102;5.242;2023-02-15T03:08:30;61.1;;;32.6;;
32451;SDS011;45528;52.102;5.242;2023-02-15T03:10:12;51.7;;;29.9;;
32451;SDS011;45528;52.102;5.242;2023-02-15T03:11:49;59.3;;;31.7;;
32451;SDS011;45528;52.102;5.242;2023-02-15T03:15:05;52.6;;;31.0;;
32451;SDS011;45528;52.102;5.242;2023-02-15T03:16:46;52.6;;;31.0;;
32451;SDS011;45528;52.102;5.242;2023-02-15T03:18:28;54.9;;;31.8;;
32451;SDS011;45528;52.102;5.242;2023-02-15T03:20:14;58.7;;;31.3;;
32451;SDS011;45528;52.102;5.242;2023-02-15T03:23:45;56.8;;;31.8;;
32451;SDS011;45528;52.102;5.242;2023-02-15T03:25:23;56.8;;;30.8;;
32451;SDS011;45528;52.102;5.242;2023-02-15T03:27:04;57.5;;;31.7;;
32451;SDS011;45528;52.102;5.242;2023-02-15T03:28:46;56.9;;;30.4;;
32451;SDS011;45528;52.102;5.242;2023-02-15T03:32:05;55.7;;;32.0;;
32451;SDS011;45528;52.102;5.242;2023-02-15T03:33:47;59.6;;;32.1;;
32451;SDS011;45528;52.102;5.242;2023-02-15T03:35:33;59.4;;;32.3;;
32451;SDS011;45528;52.102;5.242;2023-02-15T03:37:22;58.8;;;31.7;;
32451;SDS011;45528;52.102;5.242;2023-02-15T03:39:07;56.4;;;31.9;;
32451;SDS011;45528;52.102;5.242;2023-02-15T03:43:03;59.4;;;32.4;;
32451;SDS011;45528;52.102;5.242;2023-02-15T03:46:35;56.8;;;32.6;;
32451;SDS011;45528;52.102;5.242;2023-02-15T03:48:18;58.6;;;31.9;;
32451;SDS011;45528;52.102;5.242;2023-02-15T03:49:59;57.4;;;32.3;;
32451;SDS011;45528;52.102;5.242;2023-02-15T03:51:41;58.3;;;32.3;;
32451;SDS011;45528;52.102;5.242;2023-02-15T03:55:01;61.7;;;34.1;;
32451;SDS011;45528;52.102;5.242;2023-02-15T03:56:38;59.2;;;33.3;;
32451;SDS011;45528;52.102;5.242;2023-02-15T04:02:27;61.1;;;33.4;;
32451;SDS011;45528;52.102;5.242;2023-02-15T04:04:14;57.9;;;31.4;;
32451;SDS011;45528;52.102;5.242;2023-02-15T04:07:31;64.1;;;33.9;;
32451;SDS011;45528;52.102;5.242;2023-02-15T04:10:56;66.1;;;36.31;;
32451;SDS011;45528;52.102;5.242;2023-02-15T04:12:42;65.6;;;36.4;;
32451;SDS011;45528;52.102;5.242;2023-02-15T04:17:43;65.3;;;36.81;;
32451;SDS011;45528;52.102;5.242;2023-02-15T04:25:18;60.8;;;37.71;;
32451;SDS011;45528;52.102;5.242;2023-02-15T04:26:56;62.0;;;35.71;;
32451;SDS011;45528;52.102;5.242;2023-02-15T04:28:33;66.8;;;36.71;;
32451;SDS011;45528;52.102;5.242;2023-02-15T04:30:10;58.0;;;33.6;;
32451;SDS011;45528;52.102;5.242;2023-02-15T04:31:48;62.6;;;37.21;;
32451;SDS011;45528;52.102;5.242;2023-02-15T04:33:25;67.8;;;38.5;;
32451;SDS011;45528;52.102;5.242;2023-02-15T04:36:39;64.7;;;36.1;;
32451;SDS011;45528;52.102;5.242;2023-02-15T04:38:16;62.0;;;36.71;;
32451;SDS011;45528;52.102;5.242;2023-02-15T04:39:52;61.4;;;36.21;;
32451;SDS011;45528;52.102;5.242;2023-02-15T04:43:05;63.1;;;37.0;;
32451;SDS011;45528;52.102;5.242;2023-02-15T04:44:41;63.2;;;37.21;;
32451;SDS011;45528;52.102;5.242;2023-02-15T04:46:18;64.6;;;36.6;;
32451;SDS011;45528;52.102;5.242;2023-02-15T04:47:55;62.3;;;37.0;;
32451;SDS011;45528;52.102;5.242;2023-02-15T04:51:07;61.7;;;36.1;;
32451;SDS011;45528;52.102;5.242;2023-02-15T04:52:43;60.4;;;35.71;;
32451;SDS011;45528;52.102;5.242;2023-02-15T04:54:20;56.1;;;34.31;;
32451;SDS011;45528;52.102;5.242;2023-02-15T04:57:32;66.2;;;37.1;;
32451;SDS011;45528;52.102;5.242;2023-02-15T04:59:09;62.5;;;36.31;;
32451;SDS011;45528;52.102;5.242;2023-02-15T05:00:46;63.9;;;36.0;;
32451;SDS011;45528;52.102;5.242;2023-02-15T05:03:58;65.5;;;37.6;;
32451;SDS011;45528;52.102;5.242;2023-02-15T05:05:34;57.9;;;36.0;;
32451;SDS011;45528;52.102;5.242;2023-02-15T05:07:10;65.6;;;36.81;;
32451;SDS011;45528;52.102;5.242;2023-02-15T05:10:22;57.7;;;33.9;;
32451;SDS011;45528;52.102;5.242;2023-02-15T05:11:59;61.1;;;35.71;;
32451;SDS011;45528;52.102;5.242;2023-02-15T05:13:35;65.2;;;36.4;;
32451;SDS011;45528;52.102;5.242;2023-02-15T05:15:11;63.3;;;37.5;;
32451;SDS011;45528;52.102;5.242;2023-02-15T05:18:23;65.91;;;36.9;;
32451;SDS011;45528;52.102;5.242;2023-02-15T05:19:59;61.4;;;36.4;;
32451;SDS011;45528;52.102;5.242;2023-02-15T05:21:35;70.3;;;38.9;;
32451;SDS011;45528;52.102;5.242;2023-02-15T05:28:58;60.4;;;35.5;;
32451;SDS011;45528;52.102;5.242;2023-02-15T05:30:34;65.1;;;36.71;;
32451;SDS011;45528;52.102;5.242;2023-02-15T05:32:12;65.1;;;36.71;;
32451;SDS011;45528;52.102;5.242;2023-02-15T05:35:25;55.0;;;34.0;;
32451;SDS011;45528;52.102;5.242;2023-02-15T05:37:02;58.7;;;35.0;;
32451;SDS011;45528;52.102;5.242;2023-02-15T05:38:38;62.2;;;35.4;;
32451;SDS011;45528;52.102;5.242;2023-02-15T05:40:15;64.5;;;35.21;;
32451;SDS011;45528;52.102;5.242;2023-02-15T05:43:27;58.7;;;34.21;;
32451;SDS011;45528;52.102;5.242;2023-02-15T05:45:06;63.1;;;36.0;;
32451;SDS011;45528;52.102;5.242;2023-02-15T05:46:42;57.4;;;34.21;;
32451;SDS011;45528;52.102;5.242;2023-02-15T05:49:58;59.3;;;35.1;;
32451;SDS011;45528;52.102;5.242;2023-02-15T05:51:34;56.0;;;34.1;;
32451;SDS011;45528;52.102;5.242;2023-02-15T05:53:10;57.6;;;34.71;;
32451;SDS011;45528;52.102;5.242;2023-02-15T05:56:22;58.6;;;34.31;;
32451;SDS011;45528;52.102;5.242;2023-02-15T05:57:59;55.6;;;33.6;;
32451;SDS011;45528;52.102;5.242;2023-02-15T05:59:35;56.4;;;33.8;;
32451;SDS011;45528;52.102;5.242;2023-02-15T06:01:12;65.6;;;34.9;;
32451;SDS011;45528;52.102;5.242;2023-02-15T06:04:26;60.4;;;35.31;;
32451;SDS011;45528;52.102;5.242;2023-02-15T06:06:04;61.2;;;34.81;;
32451;SDS011;45528;52.102;5.242;2023-02-15T06:07:42;59.0;;;34.0;;
32451;SDS011;45528;52.102;5.242;2023-02-15T06:10:56;55.4;;;32.8;;
32451;SDS011;45528;52.102;5.242;2023-02-15T06:12:32;58.9;;;34.6;;
32451;SDS011;45528;52.102;5.242;2023-02-15T06:14:08;54.8;;;33.9;;
32451;SDS011;45528;52.102;5.242;2023-02-15T06:17:21;54.6;;;33.1;;
32451;SDS011;45528;52.102;5.242;2023-02-15T06:18:59;50.8;;;31.6;;
32451;SDS011;45528;52.102;5.242;2023-02-15T06:20:35;55.9;;;34.21;;
32451;SDS011;45528;52.102;5.242;2023-02-15T06:22:13;55.8;;;33.6;;
32451;SDS011;45528;52.102;5.242;2023-02-15T06:25:26;57.7;;;35.0;;
32451;SDS011;45528;52.102;5.242;2023-02-15T06:27:02;57.8;;;34.71;;
32451;SDS011;45528;52.102;5.242;2023-02-15T06:28:38;65.0;;;35.81;;
32451;SDS011;45528;52.102;5.242;2023-02-15T06:31:50;54.4;;;33.5;;
32451;SDS011;45528;52.102;5.242;2023-02-15T06:33:27;58.7;;;33.71;;
32451;SDS011;45528;52.102;5.242;2023-02-15T06:35:03;55.9;;;33.1;;
32451;SDS011;45528;52.102;5.242;2023-02-15T06:38:17;65.1;;;35.5;;
32451;SDS011;45528;52.102;5.242;2023-02-15T06:39:53;55.8;;;34.1;;
32451;SDS011;45528;52.102;5.242;2023-02-15T06:41:29;58.2;;;34.6;;
32451;SDS011;45528;52.102;5.242;2023-02-15T06:43:05;60.8;;;36.0;;
32451;SDS011;45528;52.102;5.242;2023-02-15T06:46:18;54.4;;;32.71;;
32451;SDS011;45528;52.102;5.242;2023-02-15T06:47:54;59.8;;;34.9;;
32451;SDS011;45528;52.102;5.242;2023-02-15T06:49:30;59.1;;;35.31;;
32451;SDS011;45528;52.102;5.242;2023-02-15T06:52:42;57.8;;;33.9;;
32451;SDS011;45528;52.102;5.242;2023-02-15T06:54:18;63.4;;;35.1;;
32451;SDS011;45528;52.102;5.242;2023-02-15T06:55:59;57.1;;;34.5;;
32451;SDS011;45528;52.102;5.242;2023-02-15T06:59:13;56.9;;;33.21;;
32451;SDS011;45528;52.102;5.242;2023-02-15T07:00:51;52.6;;;32.71;;
32451;SDS011;45528;52.102;5.242;2023-02-15T07:02:27;53.9;;;33.1;;
32451;SDS011;45528;52.102;5.242;2023-02-15T07:04:03;59.2;;;34.31;;
32451;SDS011;45528;52.102;5.242;2023-02-15T07:07:15;56.1;;;34.31;;
32451;SDS011;45528;52.102;5.242;2023-02-15T07:08:52;60.6;;;35.5;;
32451;SDS011;45528;52.102;5.242;2023-02-15T07:10:28;61.9;;;35.9;;
32451;SDS011;45528;52.102;5.242;2023-02-15T07:14:45;57.8;;;33.71;;
32451;SDS011;45528;52.102;5.242;2023-02-15T07:17:58;58.9;;;35.1;;
32451;SDS011;45528;52.102;5.242;2023-02-15T07:19:33;64.8;;;36.1;;
32451;SDS011;45528;52.102;5.242;2023-02-15T07:21:10;59.9;;;35.0;;
32451;SDS011;45528;52.102;5.242;2023-02-15T07:22:46;61.9;;;36.21;;
32451;SDS011;45528;52.102;5.242;2023-02-15T07:25:59;63.0;;;36.31;;
32451;SDS011;45528;52.102;5.242;2023-02-15T07:27:36;62.7;;;36.71;;
32451;SDS011;45528;52.102;5.242;2023-02-15T07:29:13;64.6;;;36.9;;
32451;SDS011;45528;52.102;5.242;2023-02-15T07:32:27;60.5;;;35.21;;
32451;SDS011;45528;52.102;5.242;2023-02-15T07:34:05;53.9;;;33.71;;
32451;SDS011;45528;52.102;5.242;2023-02-15T07:35:46;61.3;;;36.31;;
32451;SDS011;45528;52.102;5.242;2023-02-15T07:37:23;64.5;;;36.5;;
32451;SDS011;45528;52.102;5.242;2023-02-15T07:40:36;59.9;;;36.1;;
32451;SDS011;45528;52.102;5.242;2023-02-15T07:42:13;59.0;;;34.21;;
32451;SDS011;45528;52.102;5.242;2023-02-15T07:43:49;60.0;;;35.0;;
32451;SDS011;45528;52.102;5.242;2023-02-15T07:47:01;67.0;;;37.71;;
32451;SDS011;45528;52.102;5.242;2023-02-15T07:48:38;63.1;;;37.4;;
32451;SDS011;45528;52.102;5.242;2023-02-15T07:50:15;64.0;;;35.21;;
32451;SDS011;45528;52.102;5.242;2023-02-15T07:53:29;56.5;;;34.9;;
32451;SDS011;45528;52.102;5.242;2023-02-15T07:55:06;64.0;;;37.6;;
32451;SDS011;45528;52.102;5.242;2023-02-15T07:56:43;65.1;;;37.31;;
32451;SDS011;45528;52.102;5.242;2023-02-15T07:58:19;65.1;;;36.81;;
32451;SDS011;45528;52.102;5.242;2023-02-15T08:01:33;63.3;;;37.6;;
32451;SDS011;45528;52.102;5.242;2023-02-15T08:03:14;57.2;;;35.0;;
32451;SDS011;45528;52.102;5.242;2023-02-15T08:04:50;59.7;;;36.81;;
32451;SDS011;45528;52.102;5.242;2023-02-15T08:08:06;64.5;;;38.71;;
32451;SDS011;45528;52.102;5.242;2023-02-15T08:09:43;68.8;;;38.9;;
32451;SDS011;45528;52.102;5.242;2023-02-15T08:11:29;59.4;;;36.21;;
32451;SDS011;45528;52.102;5.242;2023-02-15T08:13:07;64.2;;;37.81;;
32451;SDS011;45528;52.102;5.242;2023-02-15T08:16:21;62.5;;;36.21;;
32451;SDS011;45528;52.102;5.242;2023-02-15T08:18:00;64.1;;;38.21;;
32451;SDS011;45528;52.102;5.242;2023-02-15T08:19:36;58.7;;;36.5;;
32451;SDS011;45528;52.102;5.242;2023-02-15T08:22:49;70.0;;;41.1;;
32451;SDS011;45528;52.102;5.242;2023-02-15T08:24:26;63.6;;;38.81;;
32451;SDS011;45528;52.102;5.242;2023-02-15T08:26:04;62.0;;;37.31;;
32451;SDS011;45528;52.102;5.242;2023-02-15T08:27:40;63.8;;;38.0;;
32451;SDS011;45528;52.102;5.242;2023-02-15T08:30:59;62.8;;;37.71;;
32451;SDS011;45528;52.102;5.242;2023-02-15T08:32:40;64.41;;;38.4;;
32451;SDS011;45528;52.102;5.242;2023-02-15T08:34:17;63.2;;;38.0;;
32451;SDS011;45528;52.102;5.242;2023-02-15T08:37:31;66.0;;;38.31;;
32451;SDS011;45528;52.102;5.242;2023-02-15T08:39:07;59.9;;;35.71;;
32451;SDS011;45528;52.102;5.242;2023-02-15T08:40:44;61.9;;;35.5;;
32451;SDS011;45528;52.102;5.242;2023-02-15T08:42:20;68.61;;;38.4;;
32451;SDS011;45528;52.102;5.242;2023-02-15T08:45:36;63.3;;;36.71;;
32451;SDS011;45528;52.102;5.242;2023-02-15T08:47:12;65.6;;;37.1;;
32451;SDS011;45528;52.102;5.242;2023-02-15T08:48:48;59.9;;;35.6;;
32451;SDS011;45528;52.102;5.242;2023-02-15T08:52:02;59.9;;;35.6;;
32451;SDS011;45528;52.102;5.242;2023-02-15T08:53:38;62.7;;;36.71;;
32451;SDS011;45528;52.102;5.242;2023-02-15T08:55:16;61.7;;;36.5;;
32451;SDS011;45528;52.102;5.242;2023-02-15T08:58:28;62.1;;;35.0;;
32451;SDS011;45528;52.102;5.242;2023-02-15T09:00:06;54.9;;;33.8;;
32451;SDS011;45528;52.102;5.242;2023-02-15T09:01:43;57.8;;;34.81;;
32451;SDS011;45528;52.102;5.242;2023-02-15T09:03:19;59.3;;;34.5;;
32451;SDS011;45528;52.102;5.242;2023-02-15T09:06:32;55.9;;;34.4;;
32451;SDS011;45528;52.102;5.242;2023-02-15T09:08:08;55.3;;;34.31;;
32451;SDS011;45528;52.102;5.242;2023-02-15T09:09:45;51.1;;;32.21;;
32451;SDS011;45528;52.102;5.242;2023-02-15T09:13:01;53.6;;;32.1;;
32451;SDS011;45528;52.102;5.242;2023-02-15T09:14:37;59.4;;;33.6;;
32451;SDS011;45528;52.102;5.242;2023-02-15T09:16:16;55.5;;;33.1;;
32451;SDS011;45528;52.102;5.242;2023-02-15T09:17:53;56.4;;;33.5;;
32451;SDS011;45528;52.102;5.242;2023-02-15T09:21:06;54.1;;;32.1;;
32451;SDS011;45528;52.102;5.242;2023-02-15T09:22:44;53.9;;;32.3;;
32451;SDS011;45528;52.102;5.242;2023-02-15T09:24:21;55.9;;;32.8;;
32451;SDS011;45528;52.102;5.242;2023-02-15T09:27:39;52.7;;;31.4;;
32451;SDS011;45528;52.102;5.242;2023-02-15T09:29:16;54.2;;;32.9;;
32451;SDS011;45528;52.102;5.242;2023-02-15T09:30:53;52.7;;;31.6;;
32451;SDS011;45528;52.102;5.242;2023-02-15T09:32:29;52.4;;;32.71;;
32451;SDS011;45528;52.102;5.242;2023-02-15T09:35:41;50.4;;;32.1;;
32451;SDS011;45528;52.102;5.242;2023-02-15T09:37:18;52.3;;;31.9;;
32451;SDS011;45528;52.102;5.242;2023-02-15T09:38:55;53.4;;;31.4;;
32451;SDS011;45528;52.102;5.242;2023-02-15T09:42:58;49.3;;;30.8;;
32451;SDS011;45528;52.102;5.242;2023-02-15T09:45:30;52.2;;;32.1;;
32451;SDS011;45528;52.102;5.242;2023-02-15T09:47:17;53.5;;;31.1;;
32451;SDS011;45528;52.102;5.242;2023-02-15T09:51:07;50.1;;;30.8;;
32451;SDS011;45528;52.102;5.242;2023-02-15T09:53:03;53.2;;;32.0;;
32451;SDS011;45528;52.102;5.242;2023-02-15T09:55:00;49.1;;;30.1;;
32451;SDS011;45528;52.102;5.242;2023-02-15T09:56:51;48.9;;;31.0;;
32451;SDS011;45528;52.102;5.242;2023-02-15T09:58:35;52.1;;;32.21;;
32451;SDS011;45528;52.102;5.242;2023-02-15T10:00:24;54.1;;;32.21;;
32451;SDS011;45528;52.102;5.242;2023-02-15T10:02:18;53.9;;;31.9;;
32451;SDS011;45528;52.102;5.242;2023-02-15T10:04:12;48.9;;;30.8;;
32451;SDS011;45528;52.102;5.242;2023-02-15T10:06:09;53.1;;;31.4;;
32451;SDS011;45528;52.102;5.242;2023-02-15T10:10:28;51.6;;;31.8;;
32451;SDS011;45528;52.102;5.242;2023-02-15T10:12:23;51.0;;;31.2;;
32451;SDS011;45528;52.102;5.242;2023-02-15T10:16:12;52.4;;;31.1;;
32451;SDS011;45528;52.102;5.242;2023-02-15T10:18:12;54.3;;;31.1;;
32451;SDS011;45528;52.102;5.242;2023-02-15T10:20:53;51.3;;;31.6;;
32451;SDS011;45528;52.102;5.242;2023-02-15T10:24:30;46.0;;;29.5;;
32451;SDS011;45528;52.102;5.242;2023-02-15T10:26:37;50.2;;;30.4;;
32451;SDS011;45528;52.102;5.242;2023-02-15T10:28:20;49.2;;;31.0;;
32451;SDS011;45528;52.102;5.242;2023-02-15T10:30:06;52.5;;;31.5;;
32451;SDS011;45528;52.102;5.242;2023-02-15T10:31:48;49.8;;;30.5;;
32451;SDS011;45528;52.102;5.242;2023-02-15T10:33:31;50.8;;;31.2;;
32451;SDS011;45528;52.102;5.242;2023-02-15T10:37:05;51.7;;;29.7;;
32451;SDS011;45528;52.102;5.242;2023-02-15T10:39:56;50.0;;;31.5;;
32451;SDS011;45528;52.102;5.242;2023-02-15T10:41:44;49.6;;;29.7;;
32451;SDS011;45528;52.102;5.242;2023-02-15T10:45:27;50.8;;;30.5;;
32451;SDS011;45528;52.102;5.242;2023-02-15T10:47:16;49.6;;;31.0;;
32451;SDS011;45528;52.102;5.242;2023-02-15T10:49:56;49.9;;;30.9;;
32451;SDS011;45528;52.102;5.242;2023-02-15T10:51:44;49.5;;;30.8;;
32451;SDS011;45528;52.102;5.242;2023-02-15T10:53:39;51.4;;;31.9;;
32451;SDS011;45528;52.102;5.242;2023-02-15T10:56:03;48.8;;;30.8;;
32451;SDS011;45528;52.102;5.242;2023-02-15T10:57:49;49.0;;;30.0;;
32451;SDS011;45528;52.102;5.242;2023-02-15T10:59:54;53.6;;;30.8;;
32451;SDS011;45528;52.102;5.242;2023-02-15T11:01:41;52.4;;;32.0;;
32451;SDS011;45528;52.102;5.242;2023-02-15T11:03:30;46.7;;;30.6;;
32451;SDS011;45528;52.102;5.242;2023-02-15T11:05:24;51.0;;;30.8;;
32451;SDS011;45528;52.102;5.242;2023-02-15T11:07:12;47.7;;;30.0;;
32451;SDS011;45528;52.102;5.242;2023-02-15T11:08:55;49.9;;;31.0;;
32451;SDS011;45528;52.102;5.242;2023-02-15T11:12:19;50.6;;;30.1;;
32451;SDS011;45528;52.102;5.242;2023-02-15T11:14:02;50.9;;;31.3;;
32451;SDS011;45528;52.102;5.242;2023-02-15T11:15:51;51.8;;;31.5;;
32451;SDS011;45528;52.102;5.242;2023-02-15T11:17:33;51.9;;;30.6;;
32451;SDS011;45528;52.102;5.242;2023-02-15T11:19:15;50.8;;;30.5;;
32451;SDS011;45528;52.102;5.242;2023-02-15T11:22:39;49.1;;;30.4;;
32451;SDS011;45528;52.102;5.242;2023-02-15T11:24:19;52.0;;;31.1;;
32451;SDS011;45528;52.102;5.242;2023-02-15T11:25:58;48.6;;;30.4;;
32451;SDS011;45528;52.102;5.242;2023-02-15T11:27:37;53.4;;;31.5;;
32451;SDS011;45528;52.102;5.242;2023-02-15T11:31:02;52.4;;;31.6;;
32451;SDS011;45528;52.102;5.242;2023-02-15T11:32:50;46.4;;;31.2;;
32451;SDS011;45528;52.102;5.242;2023-02-15T11:34:30;50.8;;;30.6;;
32451;SDS011;45528;52.102;5.242;2023-02-15T11:36:12;48.4;;;30.5;;
32451;SDS011;45528;52.102;5.242;2023-02-15T11:39:35;52.2;;;31.7;;
32451;SDS011;45528;52.102;5.242;2023-02-15T11:41:13;51.7;;;30.9;;
32451;SDS011;45528;52.102;5.242;2023-02-15T11:42:55;52.2;;;30.7;;
32451;SDS011;45528;52.102;5.242;2023-02-15T11:44:37;52.8;;;31.5;;
32451;SDS011;45528;52.102;5.242;2023-02-15T11:47:56;53.3;;;31.6;;
32451;SDS011;45528;52.102;5.242;2023-02-15T11:49:34;48.6;;;31.2;;
32451;SDS011;45528;52.102;5.242;2023-02-15T11:51:14;53.7;;;32.3;;
32451;SDS011;45528;52.102;5.242;2023-02-15T11:52:54;54.0;;;32.8;;
32451;SDS011;45528;52.102;5.242;2023-02-15T11:56:17;52.3;;;31.9;;
32451;SDS011;45528;52.102;5.242;2023-02-15T11:57:59;53.2;;;32.3;;
32451;SDS011;45528;52.102;5.242;2023-02-15T11:59:40;48.7;;;31.2;;
32451;SDS011;45528;52.102;5.242;2023-02-15T12:01:24;53.9;;;32.4;;
32451;SDS011;45528;52.102;5.242;2023-02-15T12:04:52;57.2;;;33.3;;
32451;SDS011;45528;52.102;5.242;2023-02-15T12:06:32;55.3;;;32.5;;
32451;SDS011;45528;52.102;5.242;2023-02-15T12:08:15;53.3;;;32.71;;
32451;SDS011;45528;52.102;5.242;2023-02-15T12:09:59;55.7;;;33.3;;
32451;SDS011;45528;52.102;5.242;2023-02-15T12:11:40;57.0;;;33.4;;
32451;SDS011;45528;52.102;5.242;2023-02-15T12:14:56;54.4;;;32.5;;
32451;SDS011;45528;52.102;5.242;2023-02-15T12:16:39;55.1;;;33.6;;
32451;SDS011;45528;52.102;5.242;2023-02-15T12:18:20;55.1;;;33.6;;
32451;SDS011;45528;52.102;5.242;2023-02-15T12:22:03;52.0;;;32.9;;
32451;SDS011;45528;52.102;5.242;2023-02-15T12:25:26;54.1;;;34.5;;
32451;SDS011;45528;52.102;5.242;2023-02-15T12:27:13;54.3;;;33.21;;
32451;SDS011;45528;52.102;5.242;2023-02-15T12:28:54;54.4;;;34.21;;
32451;SDS011;45528;52.102;5.242;2023-02-15T12:30:34;54.5;;;33.6;;
32451;SDS011;45528;52.102;5.242;2023-02-15T12:33:55;54.8;;;34.0;;
32451;SDS011;45528;52.102;5.242;2023-02-15T12:35:34;57.8;;;35.5;;
32451;SDS011;45528;52.102;5.242;2023-02-15T12:37:15;49.8;;;33.71;;
32451;SDS011;45528;52.102;5.242;2023-02-15T12:39:25;51.6;;;34.4;;
32451;SDS011;45528;52.102;5.242;2023-02-15T12:41:03;51.6;;;34.4;;
32451;SDS011;45528;52.102;5.242;2023-02-15T12:42:57;58.5;;;35.21;;
32451;SDS011;45528;52.102;5.242;2023-02-15T12:46:13;55.8;;;35.21;;
32451;SDS011;45528;52.102;5.242;2023-02-15T12:48:14;54.5;;;35.5;;
32451;SDS011;45528;52.102;5.242;2023-02-15T12:50:11;53.7;;;34.4;;
32451;SDS011;45528;52.102;5.242;2023-02-15T12:51:51;52.8;;;34.1;;
32451;SDS011;45528;52.102;5.242;2023-02-15T12:53:30;52.8;;;34.1;;
32451;SDS011;45528;52.102;5.242;2023-02-15T12:56:54;57.4;;;35.6;;
32451;SDS011;45528;52.102;5.242;2023-02-15T12:58:31;53.7;;;35.71;;
32451;SDS011;45528;52.102;5.242;2023-02-15T13:00:24;56.2;;;34.9;;
32451;SDS011;45528;52.102;5.242;2023-02-15T13:02:05;60.3;;;35.9;;
32451;SDS011;45528;52.102;5.242;2023-02-15T13:03:55;58.4;;;36.5;;
32451;SDS011;45528;52.102;5.242;2023-02-15T13:07:14;52.7;;;34.71;;
32451;SDS011;45528;52.102;5.242;2023-02-15T13:08:52;54.7;;;35.4;;